.
WxDataArchive / Data Records for 2014-12-22
2014-12-21 December 2014 2014-12-23

Data Records for Monday, 22 December 2014

Time	Temp	Chill	HIndex	Humid	Dewpt	 Wind 	HiWind	WindDir	Rain 	Barom
-----	----	-----	------	-----	-----	------	------	-------	-----	-----
00:00	26.1	26.1	26.1	88	23.0	0	2	90	0.00	30.136 
00:05	26.0	26.0	26.0	88	22.9	0	2	90	0.00	30.136 
00:10	26.0	26.0	26.0	89	23.2	0	3	90	0.00	30.136 
00:15	26.0	26.0	26.0	89	23.2	0	3	90	0.00	30.130 
00:20	26.0	26.0	26.0	89	23.2	1	3	90	0.00	30.130 
00:25	26.0	26.0	26.0	89	23.2	1	4	90	0.00	30.130 
00:30	26.0	26.0	26.0	88	22.9	0	2	90	0.00	30.122 
00:35	26.0	26.0	26.0	88	22.9	0	2	90	0.00	30.122 
00:40	26.0	26.0	26.0	88	22.9	0	1	90	0.00	30.122 
00:45	26.0	26.0	26.0	88	22.9	0	1	90	0.00	30.119 
00:50	26.0	26.0	26.0	88	22.9	0	2	90	0.00	30.119 
00:55	26.0	26.0	26.0	88	22.9	0	1	90	0.00	30.119 
01:00	26.0	26.0	26.0	88	22.9	0	1	90	0.00	30.115 
01:05	26.0	26.0	26.0	88	22.9	0	1	90	0.00	30.115 
01:10	26.0	26.0	26.0	88	22.9	0	3	90	0.00	30.115 
01:15	26.0	26.0	26.0	88	22.9	0	2	90	0.00	30.107 
01:20	26.0	26.0	26.0	88	22.9	0	2	90	0.00	30.107 
01:25	26.0	26.0	26.0	88	22.9	0	2	90	0.00	30.107 
01:30	26.0	26.0	26.0	88	22.9	0	2	90	0.00	30.107 
01:35	26.0	26.0	26.0	88	22.9	0	2	90	0.00	30.107 
01:40	25.8	25.8	25.8	88	22.7	0	2	90	0.00	30.107 
01:45	25.8	25.8	25.8	88	22.7	0	1	90	0.00	30.107 
01:50	25.8	25.8	25.8	88	22.7	0	2	90	0.00	30.107 
01:55	25.7	25.7	25.7	88	22.6	0	1	90	0.00	30.107 
02:00	25.7	25.7	25.7	88	22.6	0	2	90	0.00	30.104 
02:05	25.6	25.6	25.6	88	22.5	0	3	90	0.00	30.104 
02:10	25.6	25.6	25.6	88	22.5	1	3	90	0.00	30.104 
02:15	25.6	25.6	25.6	88	22.5	0	3	90	0.00	30.095 
02:20	25.6	25.6	25.6	88	22.5	1	3	90	0.00	30.095 
02:25	25.6	25.6	25.6	88	22.5	0	2	90	0.00	30.095 
02:30	25.4	25.4	25.4	88	22.4	0	2	90	0.00	30.095 
02:35	25.4	25.4	25.4	88	22.4	0	2	90	0.00	30.095 
02:40	25.4	25.4	25.4	88	22.4	1	4	90	0.00	30.095 
02:45	25.4	25.4	25.4	88	22.4	1	3	90	0.00	30.100 
02:50	25.4	25.4	25.4	88	22.4	1	3	90	0.00	30.100 
02:55	25.4	25.4	25.4	88	22.4	0	3	90	0.00	30.100 
03:00	25.3	25.3	25.3	88	22.3	0	1	90	0.00	30.096 
03:05	25.3	25.3	25.3	88	22.3	0	2	90	0.00	30.096 
03:10	25.1	25.1	25.1	88	22.1	0	2	90	0.00	30.096 
03:15	25.1	25.1	25.1	88	22.1	0	1	90	0.00	30.092 
03:20	25.0	25.0	25.0	88	22.0	0	1	90	0.00	30.092 
03:25	25.0	25.0	25.0	88	22.0	0	2	90	0.00	30.092 
03:30	24.8	24.8	24.8	88	21.8	0	2	90	0.00	30.085 
03:35	24.8	24.8	24.8	88	21.8	0	2	90	0.00	30.085 
03:40	24.8	24.8	24.8	88	21.8	0	1	90	0.00	30.085 
03:45	24.8	24.8	24.8	88	21.8	0	2	90	0.00	30.082 
03:50	24.8	24.8	24.8	88	21.8	0	1	90	0.00	30.082 
03:55	24.7	24.7	24.7	88	21.7	0	1	90	0.00	30.082 
04:00	24.7	24.7	24.7	88	21.7	0	1	90	0.00	30.081 
04:05	24.5	24.5	24.5	88	21.5	0	2	90	0.00	30.081 
04:10	24.5	24.5	24.5	88	21.5	0	2	90	0.00	30.081 
04:15	24.5	24.5	24.5	88	21.5	0	2	90	0.00	30.076 
04:20	24.4	24.4	24.4	88	21.4	0	1	90	0.00	30.076 
04:25	24.4	24.4	24.4	88	21.4	1	3	90	0.00	30.076 
04:30	24.4	24.4	24.4	88	21.4	1	3	90	0.00	30.063 
04:35	24.4	24.4	24.4	88	21.4	1	4	90	0.00	30.063 
04:40	24.4	24.4	24.4	88	21.4	1	3	90	0.00	30.063 
04:45	24.4	24.4	24.4	88	21.4	1	3	90	0.00	30.061 
04:50	24.4	24.4	24.4	88	21.4	1	3	90	0.00	30.061 
04:55	24.4	24.4	24.4	88	21.4	1	2	90	0.00	30.061 
05:00	24.4	24.4	24.4	88	21.4	1	3	90	0.00	30.058 
05:05	24.4	24.4	24.4	88	21.4	0	3	90	0.00	30.058 
05:10	24.4	24.4	24.4	88	21.4	0	2	90	0.00	30.058 
05:15	24.5	24.5	24.5	88	21.5	1	4	90	0.00	30.060 
05:20	24.7	24.7	24.7	88	21.7	1	3	90	0.00	30.060 
05:25	24.7	24.7	24.7	88	21.7	0	2	90	0.00	30.060 
05:30	24.8	24.8	24.8	88	21.8	1	3	90	0.00	30.063 
05:35	24.8	24.8	24.8	88	21.8	1	3	90	0.00	30.063 
05:40	24.8	24.8	24.8	88	21.8	1	2	90	0.00	30.063 
05:45	25.0	25.0	25.0	88	22.0	1	3	90	0.00	30.061 
05:50	25.0	25.0	25.0	88	22.0	0	3	90	0.00	30.061 
05:55	25.1	25.1	25.1	88	22.1	0	2	90	0.00	30.061 
06:00	25.1	25.1	25.1	88	22.1	0	3	90	0.00	30.061 
06:05	25.3	25.3	25.3	88	22.3	1	3	90	0.00	30.061 
06:10	25.3	25.3	25.3	88	22.3	1	4	90	0.00	30.061 
06:15	25.3	25.3	25.3	88	22.3	1	5	112	0.00	30.058 
06:20	25.3	25.3	25.3	88	22.3	1	5	112	0.00	30.058 
06:25	25.3	25.3	25.3	88	22.3	1	3	112	0.00	30.058 
06:30	25.3	25.3	25.3	88	22.3	0	2	112	0.00	30.061 
06:35	25.3	25.3	25.3	88	22.3	1	3	112	0.00	30.061 
06:40	25.3	25.3	25.3	88	22.3	1	4	112	0.00	30.061 
06:45	25.3	25.3	25.3	88	22.3	2	4	112	0.00	30.061 
06:50	25.1	25.1	25.1	88	22.1	1	3	112	0.00	30.061 
06:55	25.1	25.1	25.1	88	22.1	1	3	112	0.00	30.061 
07:00	25.0	25.0	25.0	88	22.0	1	3	112	0.00	30.064 
07:05	24.8	24.8	24.8	88	21.8	1	3	112	0.00	30.064 
07:10	24.8	24.8	24.8	88	21.8	1	3	112	0.00	30.064 
07:15	24.7	24.7	24.7	88	21.7	1	4	112	0.00	30.060 
07:20	24.7	24.7	24.7	88	21.7	1	3	112	0.00	30.060 
07:25	24.7	24.7	24.7	88	21.7	1	5	90	0.00	30.060 
07:30	24.5	24.5	24.5	88	21.5	1	4	90	0.00	30.051 
07:35	24.5	24.5	24.5	88	21.5	1	4	90	0.00	30.051 
07:40	24.4	24.4	24.4	88	21.4	1	3	90	0.00	30.051 
07:45	24.4	24.4	24.4	88	21.4	2	4	90	0.00	30.047 
07:50	24.4	24.4	24.4	88	21.4	2	4	90	0.00	30.047 
07:55	24.4	24.4	24.4	88	21.4	2	5	112	0.00	30.047 
08:00	24.4	24.4	24.4	88	21.4	2	5	112	0.00	30.036 
08:05	24.4	24.4	24.4	88	21.4	1	4	90	0.00	30.036 
08:10	24.2	24.2	24.2	88	21.2	1	5	90	0.00	30.036 
08:15	24.2	24.2	24.2	88	21.2	1	4	90	0.00	30.035 
08:20	24.2	24.2	24.2	88	21.2	1	4	90	0.00	30.035 
08:25	24.2	24.2	24.2	88	21.2	1	7	90	0.00	30.035 
08:30	24.2	24.2	24.2	88	21.2	1	7	90	0.00	30.046 
08:35	24.4	24.4	24.4	88	21.4	1	4	90	0.00	30.046 
08:40	24.4	24.4	24.4	88	21.4	2	5	90	0.00	30.046 
08:45	24.5	24.5	24.5	88	21.5	2	4	90	0.00	30.040 
08:50	24.7	24.7	24.7	88	21.7	1	4	90	0.00	30.040 
08:55	24.8	24.8	24.8	88	21.8	1	3	90	0.00	30.040 
09:00	25.0	25.0	25.0	88	22.0	1	4	90	0.00	30.035 
09:05	25.1	25.1	25.1	88	22.1	1	3	90	0.00	30.035 
09:10	25.4	25.4	25.4	88	22.4	0	2	90	0.00	30.035 
09:15	25.6	25.6	25.6	88	22.5	0	2	90	0.00	30.030 
09:20	25.8	25.8	25.8	88	22.7	1	5	90	0.00	30.030 
09:25	26.1	26.1	26.1	88	23.0	1	4	112	0.00	30.030 
09:30	26.3	26.3	26.3	88	23.2	1	4	90	0.00	30.038 
09:35	26.6	26.6	26.6	88	23.5	2	6	90	0.00	30.038 
09:40	26.7	26.7	26.7	87	23.4	2	5	90	0.00	30.038 
09:45	26.9	26.9	26.9	87	23.6	2	6	90	0.00	30.042 
09:50	27.0	27.0	27.0	87	23.7	1	5	90	0.00	30.042 
09:55	27.2	27.2	27.2	87	23.9	2	5	90	0.00	30.042 
10:00	27.3	27.3	27.3	87	24.0	2	5	112	0.00	30.029 
10:05	27.5	27.5	27.5	87	24.1	2	5	112	0.00	30.029 
10:10	27.6	27.6	27.6	87	24.2	2	6	112	0.00	30.029 
10:15	27.6	27.6	27.6	87	24.2	2	6	90	0.00	30.011 
10:20	27.9	27.9	27.9	87	24.5	1	3	90	0.00	30.011 
10:25	28.1	28.1	28.1	87	24.7	2	7	90	0.00	30.011 
10:30	28.2	23.7	28.2	87	24.8	4	10	90	0.00	30.002 
10:35	28.5	28.5	28.5	86	24.9	3	7	90	0.00	30.002 
10:40	28.8	24.4	28.8	86	25.2	4	7	90	0.00	30.002 
10:45	29.3	29.3	29.3	86	25.6	3	6	90	0.00	30.004 
10:50	29.5	29.5	29.5	86	25.8	2	5	68	0.00	30.004 
10:55	29.7	29.7	29.7	86	26.0	2	4	112	0.00	30.004 
11:00	29.8	29.8	29.8	86	26.1	2	6	90	0.00	29.999 
11:05	30.0	30.0	30.0	85	26.0	3	7	90	0.00	29.999 
11:10	30.1	30.1	30.1	85	26.1	3	6	112	0.00	29.999 
11:15	30.3	30.3	30.3	85	26.3	3	6	90	0.00	29.998 
11:20	30.4	30.4	30.4	85	26.4	2	8	90	0.00	29.998 
11:25	30.6	30.6	30.6	85	26.6	2	4	90	0.00	29.998 
11:30	30.6	30.6	30.6	85	26.6	2	7	90	0.00	29.999 
11:35	30.6	30.6	30.6	85	26.6	2	6	90	0.00	29.999 
11:40	30.7	30.7	30.7	85	26.7	2	6	112	0.00	29.999 
11:45	30.7	30.7	30.7	85	26.7	3	7	90	0.00	29.984 
11:50	30.9	30.9	30.9	85	26.9	1	4	90	0.00	29.984 
11:55	31.0	31.0	31.0	85	27.0	3	6	90	0.00	29.984 
12:00	31.0	31.0	31.0	85	27.0	3	7	90	0.00	29.966 
12:05	31.3	31.3	31.3	86	27.6	2	5	90	0.00	29.966 
12:10	31.5	31.5	31.5	86	27.8	3	6	90	0.00	29.966 
12:15	31.6	31.6	31.6	86	27.9	2	6	90	0.00	29.961 
12:20	31.8	31.8	31.8	86	28.1	2	5	90	0.00	29.961 
12:25	31.9	31.9	31.9	86	28.2	2	4	90	0.00	29.961 
12:30	32.1	32.1	32.1	86	28.4	1	4	90	0.00	29.950 
12:35	32.2	32.2	32.2	86	28.5	1	4	90	0.00	29.950 
12:40	32.4	32.4	32.4	86	28.7	1	4	90	0.00	29.950 
12:45	32.5	32.5	32.5	86	28.8	2	7	90	0.00	29.934 
12:50	32.7	32.7	32.7	86	29.0	2	6	68	0.00	29.934 
12:55	32.9	32.9	32.9	85	28.9	2	5	90	0.00	29.934 
13:00	33.1	33.1	33.1	86	29.4	3	6	90	0.00	29.931 
13:05	33.5	33.5	33.5	86	29.8	2	5	90	0.00	29.931 
13:10	33.7	33.7	33.7	85	29.7	3	7	90	0.00	29.931 
13:15	33.8	33.8	33.8	85	29.8	3	6	90	0.00	29.917 
13:20	33.8	33.8	33.8	84	29.5	2	5	90	0.00	29.917 
13:25	34.0	34.0	34.0	85	30.0	2	4	90	0.00	29.917 
13:30	34.3	34.3	34.3	85	30.3	1	4	90	0.00	29.916 
13:35	34.4	34.4	34.4	84	30.1	2	5	90	0.00	29.916 
13:40	34.6	34.6	34.6	84	30.3	2	5	90	0.00	29.916 
13:45	34.6	34.6	34.6	84	30.3	3	7	90	0.00	29.904 
13:50	34.7	34.7	34.7	84	30.4	2	5	90	0.00	29.904 
13:55	34.9	34.9	34.9	84	30.6	3	5	90	0.00	29.904 
14:00	35.0	35.0	35.0	84	30.7	3	7	90	0.00	29.892 
14:05	35.2	35.2	35.2	84	30.9	3	6	90	0.00	29.892 
14:10	35.3	35.3	35.3	84	31.0	3	5	90	0.00	29.892 
14:15	35.3	35.3	35.3	84	31.0	3	5	90	0.00	29.888 
14:20	35.3	35.3	35.3	84	31.0	2	5	112	0.00	29.888 
14:25	35.5	35.5	35.5	84	31.2	3	5	90	0.00	29.888 
14:30	35.5	35.5	35.5	84	31.2	2	6	90	0.00	29.881 
14:35	35.6	35.6	35.6	85	31.5	1	5	90	0.00	29.881 
14:40	35.8	35.8	35.8	85	31.7	2	5	90	0.00	29.881 
14:45	35.8	35.8	35.8	85	31.7	2	6	90	0.00	29.872 
14:50	35.9	35.9	35.9	86	32.1	2	6	90	0.00	29.872 
14:55	35.9	35.9	35.9	86	32.1	1	5	90	0.00	29.872 
15:00	36.0	36.0	36.0	86	32.2	2	5	90	0.00	29.869 
15:05	36.0	36.0	36.0	86	32.2	2	5	90	0.00	29.869 
15:10	36.0	36.0	36.0	86	32.2	2	6	90	0.00	29.869 
15:15	36.0	36.0	36.0	86	32.2	2	6	90	0.00	29.868 
15:20	36.0	36.0	36.0	86	32.2	1	5	90	0.00	29.868 
15:25	36.2	36.2	36.2	86	32.4	3	6	90	0.00	29.868 
15:30	36.2	36.2	36.2	86	32.4	3	6	90	0.00	29.868 
15:35	36.2	36.2	36.2	86	32.4	3	5	90	0.00	29.868 
15:40	36.3	36.3	36.3	85	32.2	3	6	90	0.00	29.868 
15:45	36.5	36.5	36.5	85	32.4	2	5	112	0.00	29.866 
15:50	36.5	36.5	36.5	85	32.4	3	10	90	0.00	29.866 
15:55	36.6	36.6	36.6	85	32.5	3	6	90	0.00	29.866 
16:00	36.6	36.6	36.6	85	32.5	3	7	90	0.00	29.863 
16:05	36.8	36.8	36.8	85	32.7	2	5	90	0.00	29.863 
16:10	36.8	36.8	36.8	84	32.4	3	6	90	0.00	29.863 
16:15	36.8	36.8	36.8	84	32.4	2	8	90	0.00	29.865 
16:20	36.8	36.8	36.8	84	32.4	3	6	90	0.00	29.865 
16:25	36.9	36.9	36.9	84	32.5	3	9	90	0.00	29.865 
16:30	36.9	33.7	36.9	84	32.5	4	10	112	0.00	29.858 
16:35	36.9	33.7	36.9	84	32.5	4	9	112	0.00	29.858 
16:40	36.9	36.9	36.9	84	32.5	3	6	90	0.00	29.858 
16:45	36.9	33.7	36.9	84	32.5	4	9	90	0.00	29.854 
16:50	36.9	33.7	36.9	84	32.5	4	10	90	0.00	29.854 
16:55	36.9	33.7	36.9	84	32.5	4	9	90	0.00	29.854 
17:00	36.9	33.7	36.9	84	32.5	4	9	90	0.00	29.852 
17:05	36.9	33.7	36.9	84	32.5	4	7	90	0.00	29.852 
17:10	36.9	33.7	36.9	84	32.5	4	9	90	0.00	29.852 
17:15	36.9	33.7	36.9	84	32.5	4	7	90	0.00	29.845 
17:20	36.9	36.9	36.9	84	32.5	3	11	112	0.00	29.845 
17:25	36.9	33.7	36.9	84	32.5	4	11	90	0.00	29.845 
17:30	36.8	33.6	36.8	85	32.7	4	10	90	0.00	29.833 
17:35	36.8	33.6	36.8	85	32.7	4	11	90	0.00	29.833 
17:40	36.8	33.6	36.8	85	32.7	4	9	112	0.00	29.833 
17:45	36.9	36.9	36.9	85	32.8	3	7	90	0.00	29.841 
17:50	36.9	33.7	36.9	84	32.5	4	9	112	0.00	29.841 
17:55	36.9	36.9	36.9	84	32.5	3	7	90	0.00	29.841 
18:00	36.9	33.7	36.9	84	32.5	4	11	90	0.00	29.835 
18:05	36.9	36.9	36.9	84	32.5	3	5	90	0.00	29.835 
18:10	36.9	36.9	36.9	85	32.8	3	5	90	0.00	29.835 
18:15	36.9	36.9	36.9	85	32.8	3	10	90	0.00	29.832 
18:20	36.9	36.9	36.9	85	32.8	3	7	112	0.00	29.832 
18:25	36.9	36.9	36.9	85	32.8	3	10	90	0.00	29.832 
18:30	36.9	33.7	36.9	85	32.8	4	9	90	0.00	29.828 
18:35	36.9	36.9	36.9	85	32.8	3	6	90	0.00	29.828 
18:40	36.9	36.9	36.9	85	32.8	3	8	90	0.00	29.828 
18:45	36.9	36.9	36.9	86	33.1	3	6	90	0.00	29.820 
18:50	36.9	36.9	36.9	86	33.1	3	7	90	0.00	29.820 
18:55	36.9	36.9	36.9	86	33.1	3	5	112	0.00	29.820 
19:00	36.9	36.9	36.9	87	33.4	2	5	90	0.00	29.834 
19:05	36.9	36.9	36.9	87	33.4	2	7	90	0.00	29.834 
19:10	36.9	36.9	36.9	87	33.4	3	6	90	0.00	29.834 
19:15	36.9	36.9	36.9	88	33.7	3	6	90	0.00	29.836 
19:20	36.9	36.9	36.9	88	33.7	3	6	90	0.00	29.836 
19:25	36.8	36.8	36.8	88	33.6	2	5	90	0.00	29.836 
19:30	36.8	36.8	36.8	88	33.6	3	6	90	0.00	29.826 
19:35	36.8	36.8	36.8	88	33.6	3	7	90	0.00	29.826 
19:40	36.6	36.6	36.6	89	33.7	3	9	90	0.00	29.826 
19:45	36.6	36.6	36.6	89	33.7	2	6	90	0.01	29.820 
19:50	36.6	36.6	36.6	89	33.7	3	7	112	0.00	29.820 
19:55	36.5	36.5	36.5	89	33.6	3	10	112	0.00	29.820 
20:00	36.5	33.3	36.5	90	33.9	4	10	112	0.00	29.807 
20:05	36.5	36.5	36.5	90	33.9	3	7	90	0.00	29.807 
20:10	36.5	33.3	36.5	90	33.9	4	10	90	0.00	29.807 
20:15	36.5	33.3	36.5	90	33.9	4	9	90	0.00	29.803 
20:20	36.5	33.3	36.5	90	33.9	4	9	90	0.00	29.803 
20:25	36.5	33.3	36.5	90	33.9	4	11	112	0.01	29.803 
20:30	36.5	36.5	36.5	90	33.9	3	7	112	0.00	29.797 
20:35	36.6	36.6	36.6	90	33.9	2	5	112	0.00	29.797 
20:40	36.6	36.6	36.6	91	34.2	3	7	90	0.01	29.797 
20:45	36.8	33.6	36.8	91	34.4	4	8	90	0.00	29.802 
20:50	36.8	36.8	36.8	91	34.4	3	5	90	0.01	29.802 
20:55	36.8	36.8	36.8	91	34.4	2	6	112	0.00	29.802 
21:00	36.8	36.8	36.8	91	34.4	3	5	90	0.00	29.793 
21:05	36.8	36.8	36.8	91	34.4	3	6	90	0.01	29.793 
21:10	36.8	36.8	36.8	91	34.4	2	6	90	0.00	29.793 
21:15	36.8	36.8	36.8	91	34.4	2	6	90	0.00	29.785 
21:20	36.8	36.8	36.8	92	34.7	3	6	90	0.00	29.785 
21:25	36.8	36.8	36.8	92	34.7	3	7	112	0.00	29.785 
21:30	36.8	33.6	36.8	92	34.7	4	10	90	0.01	29.774 
21:35	36.8	36.8	36.8	92	34.7	3	7	90	0.00	29.774 
21:40	36.8	36.8	36.8	92	34.7	3	6	90	0.00	29.774 
21:45	36.8	36.8	36.8	92	34.7	2	6	90	0.00	29.767 
21:50	36.8	33.6	36.8	92	34.7	4	9	90	0.00	29.767 
21:55	36.8	36.8	36.8	92	34.7	2	9	90	0.00	29.767 
22:00	36.8	36.8	36.8	92	34.7	2	6	90	0.00	29.754 
22:05	36.8	36.8	36.8	92	34.7	3	6	112	0.00	29.754 
22:10	36.9	36.9	36.9	92	34.8	2	6	90	0.00	29.754 
22:15	36.9	36.9	36.9	92	34.8	3	9	90	0.00	29.752 
22:20	37.0	37.0	37.0	92	34.9	2	5	90	0.00	29.752 
22:25	37.0	37.0	37.0	92	34.9	3	7	90	0.00	29.752 
22:30	37.2	37.2	37.2	92	35.1	2	5	90	0.00	29.753 
22:35	37.2	37.2	37.2	92	35.1	3	6	90	0.00	29.753 
22:40	37.2	37.2	37.2	92	35.1	2	5	90	0.00	29.753 
22:45	37.3	37.3	37.3	92	35.2	2	6	90	0.00	29.755 
22:50	37.3	37.3	37.3	92	35.2	2	5	90	0.00	29.755 
22:55	37.3	37.3	37.3	92	35.2	2	6	90	0.00	29.755 
23:00	37.3	37.3	37.3	92	35.2	2	5	90	0.00	29.750 
23:05	37.3	37.3	37.3	92	35.2	3	6	90	0.00	29.750 
23:10	37.5	37.5	37.5	92	35.4	2	6	90	0.00	29.750 
23:15	37.5	37.5	37.5	92	35.4	3	6	90	0.00	29.739 
23:20	37.5	37.5	37.5	92	35.4	3	7	90	0.00	29.739 
23:25	37.5	37.5	37.5	92	35.4	2	7	112	0.00	29.739 
23:30	37.5	37.5	37.5	92	35.4	2	4	112	0.00	29.735 
23:35	37.5	37.5	37.5	92	35.4	3	6	112	0.00	29.735 
23:40	37.6	37.6	37.6	92	35.5	2	5	90	0.00	29.735 
23:45	37.6	37.6	37.6	92	35.5	3	7	90	0.00	29.732 
23:50	37.6	37.6	37.6	91	35.2	3	6	90	0.00	29.732 
23:55	37.6	37.6	37.6	91	35.2	3	6	90	0.00	29.732 

CoCoRaHS
IN-AL-39
A2 Web Hosting
Creative Commons License
GoDaddy
search engine by freefind advanced

loaded 2018-11-20 02:40:31 • last modified 2010-11-18 10:43:29
Privacy PolicyDisclaimer
• wx.awcolley.com is powered by PmWiki v.2002016 •
• all content (unless otherwise noted) © 2018 A W Colley